createdAt,value
2018-09-06T00:00:11.718Z,0.00
2018-09-06T00:01:11.628Z,0.00
2018-09-06T00:02:11.523Z,0.00
2018-09-06T00:03:11.434Z,0.00
2018-09-06T00:04:11.329Z,0.00
2018-09-06T00:05:11.238Z,0.00
2018-09-06T00:06:11.134Z,0.00
2018-09-06T00:07:11.044Z,0.00
2018-09-06T00:08:10.941Z,0.00
2018-09-06T00:09:10.849Z,0.00
2018-09-06T00:10:10.747Z,0.00
2018-09-06T00:11:10.676Z,0.00
2018-09-06T00:12:10.552Z,0.00
2018-09-06T00:13:10.462Z,0.00
2018-09-06T00:14:10.358Z,0.00
2018-09-06T00:15:10.267Z,0.00
2018-09-06T00:16:10.164Z,0.00
2018-09-06T00:17:10.062Z,0.00
2018-09-06T00:18:09.970Z,0.00
2018-09-06T00:19:09.867Z,0.00
2018-09-06T00:20:09.782Z,0.00
2018-09-06T00:21:09.674Z,0.00
2018-09-06T00:22:09.583Z,0.00
2018-09-06T00:23:09.478Z,0.00
2018-09-06T00:24:09.388Z,0.00
2018-09-06T00:25:09.285Z,0.00
2018-09-06T00:26:09.193Z,0.00
2018-09-06T00:27:09.092Z,0.00
2018-09-06T00:28:08.999Z,0.00
2018-09-06T00:29:08.896Z,0.00
2018-09-06T00:30:08.794Z,0.00
2018-09-06T00:31:08.704Z,0.00
2018-09-06T00:32:08.600Z,0.00
2018-09-06T00:33:08.508Z,0.00
2018-09-06T00:34:08.405Z,0.00
2018-09-06T00:35:08.314Z,0.00
2018-09-06T00:36:08.213Z,0.00
2018-09-06T00:37:08.120Z,0.00
2018-09-06T00:38:08.017Z,0.00
2018-09-06T00:39:07.926Z,0.00
2018-09-06T00:40:07.822Z,0.00
2018-09-06T00:41:07.731Z,0.00
2018-09-06T00:42:07.628Z,0.00
2018-09-06T00:43:07.527Z,0.00
2018-09-06T00:44:07.434Z,0.00
2018-09-06T00:45:07.332Z,0.00
2018-09-06T00:46:07.240Z,0.00
2018-09-06T00:47:07.136Z,0.00
2018-09-06T00:48:07.045Z,0.00
2018-09-06T00:49:06.940Z,0.00
2018-09-06T00:50:06.849Z,0.00
2018-09-06T00:51:06.745Z,0.00
2018-09-06T00:52:06.656Z,0.00
2018-09-06T00:53:06.551Z,0.00
2018-09-06T00:54:06.449Z,0.00
2018-09-06T00:55:06.373Z,0.00
2018-09-06T00:56:06.254Z,0.00
2018-09-06T00:57:06.167Z,0.00
2018-09-06T00:58:06.072Z,0.00
2018-09-06T00:59:05.969Z,0.00
2018-09-06T01:00:05.866Z,0.00
2018-09-06T01:01:05.780Z,0.00
2018-09-06T01:02:05.673Z,0.00
2018-09-06T01:03:05.580Z,0.00
2018-09-06T01:04:05.478Z,0.00
2018-09-06T01:05:05.376Z,0.00
2018-09-06T01:06:05.285Z,0.00
2018-09-06T01:07:05.182Z,0.00
2018-09-06T01:08:05.090Z,0.00
2018-09-06T01:09:04.988Z,0.00
2018-09-06T01:10:04.896Z,0.00
2018-09-06T01:11:04.793Z,0.00
2018-09-06T01:12:04.702Z,0.00
2018-09-06T01:13:04.598Z,0.00
2018-09-06T01:14:04.496Z,0.00
2018-09-06T01:15:04.408Z,0.00
2018-09-06T01:16:04.302Z,0.00
2018-09-06T01:17:04.210Z,0.00
2018-09-06T01:18:04.106Z,0.00
2018-09-06T01:19:04.017Z,0.00
2018-09-06T01:20:03.913Z,0.00
2018-09-06T01:21:03.821Z,0.00
2018-09-06T01:22:03.718Z,0.00
2018-09-06T01:23:03.615Z,0.00
2018-09-06T01:24:03.525Z,0.00
2018-09-06T01:25:03.422Z,0.00
2018-09-06T01:26:03.330Z,0.00
2018-09-06T01:27:03.227Z,0.00
2018-09-06T01:28:03.137Z,0.00
2018-09-06T01:29:03.034Z,0.00
2018-09-06T01:30:02.930Z,0.00
2018-09-06T01:31:02.838Z,0.00
2018-09-06T01:32:02.735Z,0.00
2018-09-06T01:33:02.645Z,0.00
2018-09-06T01:34:02.543Z,0.00
2018-09-06T01:35:02.667Z,0.00
2018-09-06T01:36:02.347Z,0.00
2018-09-06T01:37:02.261Z,0.00
2018-09-06T01:38:02.154Z,0.00
2018-09-06T01:39:02.054Z,0.00
2018-09-06T01:40:01.959Z,0.00
2018-09-06T01:41:01.858Z,0.00
2018-09-06T01:42:01.765Z,0.00
2018-09-06T01:43:01.662Z,0.00
2018-09-06T01:44:01.559Z,0.00
2018-09-06T01:45:01.467Z,0.00
2018-09-06T01:46:01.364Z,0.00
2018-09-06T01:47:01.274Z,0.00
2018-09-06T01:48:01.170Z,0.00
2018-09-06T01:49:01.079Z,0.00
2018-09-06T01:50:00.975Z,0.00
2018-09-06T01:51:00.880Z,0.00
2018-09-06T01:52:00.783Z,0.00
2018-09-06T01:53:00.680Z,0.00
2018-09-06T01:54:00.633Z,0.00
2018-09-06T01:55:00.497Z,0.00
2018-09-06T01:56:00.399Z,0.00
2018-09-06T01:57:00.291Z,0.00
2018-09-06T01:58:00.187Z,0.00
2018-09-06T01:59:00.096Z,0.00
2018-09-06T01:59:59.993Z,0.00
2018-09-06T02:00:59.903Z,0.00
2018-09-06T02:01:59.800Z,0.00
2018-09-06T02:02:59.708Z,0.00
2018-09-06T02:03:59.605Z,0.00
2018-09-06T02:04:59.501Z,0.00
2018-09-06T02:05:59.411Z,0.00
2018-09-06T02:06:59.308Z,0.00
2018-09-06T02:07:59.216Z,0.00
2018-09-06T02:08:59.113Z,0.00
2018-09-06T02:09:59.010Z,0.00
2018-09-06T02:10:59.219Z,0.00
2018-09-06T02:11:58.817Z,0.00
2018-09-06T02:12:58.726Z,0.00
2018-09-06T02:13:58.622Z,0.00
2018-09-06T02:14:58.520Z,0.00
2018-09-06T02:15:58.428Z,0.00
2018-09-06T02:16:58.326Z,0.00
2018-09-06T02:17:58.233Z,0.00
2018-09-06T02:18:58.133Z,0.00
2018-09-06T02:19:58.040Z,0.00
2018-09-06T02:20:57.936Z,0.00
2018-09-06T02:21:57.836Z,0.00
2018-09-06T02:22:57.742Z,0.00
2018-09-06T02:23:57.639Z,0.00
2018-09-06T02:24:57.549Z,0.00
2018-09-06T02:25:57.445Z,0.00
2018-09-06T02:26:57.367Z,0.00
2018-09-06T02:27:57.250Z,0.00
2018-09-06T02:28:57.150Z,0.00
2018-09-06T02:29:57.058Z,0.00
2018-09-06T02:30:57.004Z,0.00
2018-09-06T02:31:56.862Z,0.00
2018-09-06T02:32:56.760Z,0.00
2018-09-06T02:33:56.657Z,0.00
2018-09-06T02:34:56.565Z,0.00
2018-09-06T02:35:56.462Z,0.00
2018-09-06T02:36:56.371Z,0.00
2018-09-06T02:37:56.267Z,0.00
2018-09-06T02:38:56.178Z,0.00
2018-09-06T02:39:56.075Z,0.00
2018-09-06T02:40:55.970Z,0.00
2018-09-06T02:41:55.913Z,0.00
2018-09-06T02:42:55.776Z,0.00
2018-09-06T02:43:55.687Z,0.00
2018-09-06T02:44:55.581Z,0.00
2018-09-06T02:45:55.779Z,0.00
2018-09-06T02:46:55.386Z,0.00
2018-09-06T02:47:55.298Z,0.00
2018-09-06T02:48:55.194Z,0.00
2018-09-06T02:49:55.091Z,0.00
2018-09-06T02:50:54.989Z,0.00
2018-09-06T02:51:54.902Z,0.00
2018-09-06T02:52:54.795Z,0.00
2018-09-06T02:53:54.769Z,0.00
2018-09-06T02:54:54.603Z,0.00
2018-09-06T02:55:54.507Z,0.00
2018-09-06T02:56:54.404Z,0.00
2018-09-06T02:57:54.300Z,0.00
2018-09-06T02:58:54.211Z,0.00
2018-09-06T02:59:54.107Z,0.00
2018-09-06T03:00:54.016Z,0.00
2018-09-06T03:01:53.913Z,0.00
2018-09-06T03:02:53.810Z,0.00
2018-09-06T03:03:53.719Z,0.00
2018-09-06T03:04:53.616Z,0.00
2018-09-06T03:05:53.776Z,0.00
2018-09-06T03:06:53.424Z,0.00
2018-09-06T03:07:53.320Z,0.00
2018-09-06T03:08:53.227Z,0.00
2018-09-06T03:09:53.125Z,0.00
2018-09-06T03:10:53.033Z,0.00
2018-09-06T03:11:52.929Z,0.00
2018-09-06T03:12:52.839Z,0.00
2018-09-06T03:13:52.736Z,0.00
2018-09-06T03:14:52.634Z,0.00
2018-09-06T03:15:52.541Z,0.00
2018-09-06T03:16:52.438Z,0.00
2018-09-06T03:17:52.352Z,0.00
2018-09-06T03:18:52.249Z,0.00
2018-09-06T03:19:52.142Z,0.00
2018-09-06T03:20:52.054Z,0.00
2018-09-06T03:21:51.948Z,0.00
2018-09-06T03:22:51.857Z,0.00
2018-09-06T03:23:51.752Z,0.00
2018-09-06T03:24:51.661Z,0.00
2018-09-06T03:25:51.558Z,0.00
2018-09-06T03:26:51.455Z,0.00
2018-09-06T03:27:51.369Z,0.00
2018-09-06T03:28:51.263Z,0.00
2018-09-06T03:29:51.159Z,0.00
2018-09-06T03:30:51.068Z,0.00
2018-09-06T03:31:50.977Z,0.00
2018-09-06T03:32:50.874Z,0.00
2018-09-06T03:33:50.785Z,0.00
2018-09-06T03:34:50.678Z,0.00
2018-09-06T03:35:50.593Z,0.00
2018-09-06T03:36:50.478Z,0.00
2018-09-06T03:37:50.383Z,0.00
2018-09-06T03:38:50.278Z,0.00
2018-09-06T03:39:50.188Z,0.00
2018-09-06T03:40:50.084Z,0.00
2018-09-06T03:41:49.981Z,0.00
2018-09-06T03:42:49.891Z,0.00
2018-09-06T03:43:49.790Z,0.00
2018-09-06T03:44:49.696Z,0.00
2018-09-06T03:45:49.592Z,0.00
2018-09-06T03:46:49.490Z,0.00
2018-09-06T03:47:49.399Z,0.00
2018-09-06T03:48:49.301Z,0.00
2018-09-06T03:49:49.204Z,0.00
2018-09-06T03:50:49.351Z,0.00
2018-09-06T03:51:49.000Z,0.00
2018-09-06T03:52:48.908Z,4.00
2018-09-06T03:53:48.804Z,4.00
2018-09-06T03:54:48.714Z,0.00
2018-09-06T03:55:48.609Z,4.00
2018-09-06T03:56:48.520Z,4.00
2018-09-06T03:57:48.419Z,4.00
2018-09-06T03:58:48.313Z,8.00
2018-09-06T03:59:48.222Z,4.00
2018-09-06T04:00:48.119Z,8.00
2018-09-06T04:01:48.028Z,8.00
2018-09-06T04:02:47.924Z,8.00
2018-09-06T04:03:47.825Z,12.00
2018-09-06T04:04:47.729Z,12.00
2018-09-06T04:05:47.626Z,20.00
2018-09-06T04:06:47.537Z,20.00
2018-09-06T04:07:47.434Z,24.00
2018-09-06T04:08:47.330Z,28.00
2018-09-06T04:09:47.238Z,32.00
2018-09-06T04:10:47.135Z,40.00
2018-09-06T04:11:47.046Z,44.00
2018-09-06T04:12:46.942Z,48.00
2018-09-06T04:13:46.841Z,56.00
2018-09-06T04:14:46.747Z,64.00
2018-09-06T04:15:46.646Z,76.00
2018-09-06T04:16:46.553Z,84.00
2018-09-06T04:17:46.451Z,96.00
2018-09-06T04:18:46.349Z,104.00
2018-09-06T04:19:46.256Z,120.00
2018-09-06T04:20:46.153Z,136.00
2018-09-06T04:21:46.065Z,152.00
2018-09-06T04:22:45.960Z,168.00
2018-09-06T04:23:45.867Z,184.00
2018-09-06T04:24:45.764Z,200.00
2018-09-06T04:25:45.661Z,216.00
2018-09-06T04:26:45.572Z,236.00
2018-09-06T04:27:45.467Z,260.00
2018-09-06T04:28:45.375Z,280.00
2018-09-06T04:29:45.272Z,304.00
2018-09-06T04:30:45.170Z,328.00
2018-09-06T04:31:45.079Z,352.00
2018-09-06T04:32:44.976Z,376.00
2018-09-06T04:33:44.884Z,400.00
2018-09-06T04:34:44.780Z,428.00
2018-09-06T04:35:44.692Z,456.00
2018-09-06T04:36:44.588Z,492.00
2018-09-06T04:37:44.484Z,528.00
2018-09-06T04:38:44.392Z,556.00
2018-09-06T04:39:44.290Z,592.00
2018-09-06T04:40:44.200Z,628.00
2018-09-06T04:41:44.096Z,668.00
2018-09-06T04:42:43.993Z,716.00
2018-09-06T04:43:43.936Z,764.00
2018-09-06T04:44:43.797Z,808.00
2018-09-06T04:45:43.707Z,856.00
2018-09-06T04:46:43.605Z,896.00
2018-09-06T04:47:43.514Z,940.00
2018-09-06T04:48:43.425Z,992.00
2018-09-06T04:49:43.345Z,1060.00
2018-09-06T04:50:43.217Z,1140.00
2018-09-06T04:51:43.113Z,1220.00
2018-09-06T04:52:43.021Z,1288.00
2018-09-06T04:53:42.918Z,1336.00
2018-09-06T04:54:42.816Z,1372.00
2018-09-06T04:55:42.726Z,1424.00
2018-09-06T04:56:42.621Z,1484.00
2018-09-06T04:57:42.536Z,1560.00
2018-09-06T04:58:42.427Z,1652.00
2018-09-06T04:59:42.337Z,1760.00
2018-09-06T05:00:42.233Z,1836.00
2018-09-06T05:01:42.131Z,1876.00
2018-09-06T05:02:42.038Z,1900.00
2018-09-06T05:03:41.936Z,1912.00
2018-09-06T05:04:41.846Z,1924.00
2018-09-06T05:05:41.744Z,1944.00
2018-09-06T05:06:41.651Z,1960.00
2018-09-06T05:07:41.550Z,1968.00
2018-09-06T05:08:41.457Z,2004.00
2018-09-06T05:09:41.357Z,2032.00
2018-09-06T05:10:41.261Z,2016.00
2018-09-06T05:11:41.159Z,1980.00
2018-09-06T05:12:41.068Z,2008.00
2018-09-06T05:13:40.965Z,2052.00
2018-09-06T05:14:40.873Z,2120.00
2018-09-06T05:15:40.772Z,2204.00
2018-09-06T05:16:40.679Z,2324.00
2018-09-06T05:17:40.576Z,2488.00
2018-09-06T05:18:40.487Z,2660.00
2018-09-06T05:19:40.382Z,2824.00
2018-09-06T05:20:40.293Z,2956.00
2018-09-06T05:21:40.189Z,3048.00
2018-09-06T05:22:40.097Z,3148.00
2018-09-06T05:23:40.007Z,3204.00
2018-09-06T05:24:39.904Z,3172.00
2018-09-06T05:25:39.799Z,3120.00
2018-09-06T05:26:39.709Z,3132.00
2018-09-06T05:27:39.607Z,3208.00
2018-09-06T05:28:39.516Z,3284.00
2018-09-06T05:29:39.412Z,3320.00
2018-09-06T05:30:39.325Z,3324.00
2018-09-06T05:31:39.218Z,3316.00
2018-09-06T05:32:39.128Z,3336.00
2018-09-06T05:33:39.024Z,3424.00
2018-09-06T05:34:38.932Z,3456.00
2018-09-06T05:35:38.829Z,3468.00
2018-09-06T05:36:38.800Z,3524.00
2018-09-06T05:37:38.636Z,3584.00
2018-09-06T05:38:38.544Z,3668.00
2018-09-06T05:39:38.441Z,3796.00
2018-09-06T05:40:38.351Z,3976.00
2018-09-06T05:41:38.248Z,4180.00
2018-09-06T05:42:38.156Z,4360.00
2018-09-06T05:43:38.052Z,4464.00
2018-09-06T05:44:37.963Z,4528.00
2018-09-06T05:45:37.860Z,4596.00
2018-09-06T05:46:37.769Z,4724.00
2018-09-06T05:47:37.678Z,4900.00
2018-09-06T05:48:37.575Z,5100.00
2018-09-06T05:49:37.474Z,5260.00
2018-09-06T05:50:37.379Z,5364.00
2018-09-06T05:51:37.277Z,5428.00
2018-09-06T05:52:37.193Z,5488.00
2018-09-06T05:53:37.083Z,5604.00
2018-09-06T05:54:36.992Z,5720.00
2018-09-06T05:55:36.901Z,5844.00
2018-09-06T05:56:36.805Z,5952.00
2018-09-06T05:57:36.694Z,6048.00
2018-09-06T05:58:36.602Z,6144.00
2018-09-06T05:59:36.547Z,6248.00
2018-09-06T06:00:36.413Z,6408.00
2018-09-06T06:01:36.306Z,6568.00
2018-09-06T06:02:36.214Z,6824.00
2018-09-06T06:03:36.111Z,7456.00
2018-09-06T06:04:36.022Z,8100.00
2018-09-06T06:05:35.921Z,8744.00
2018-09-06T06:06:35.828Z,9172.00
2018-09-06T06:07:35.736Z,9416.00
2018-09-06T06:08:35.634Z,9656.00
2018-09-06T06:09:35.543Z,9812.00
2018-09-06T06:10:35.439Z,9916.00
2018-09-06T06:11:35.349Z,9896.00
2018-09-06T06:12:35.245Z,9796.00
2018-09-06T06:13:35.154Z,9656.00
2018-09-06T06:14:35.064Z,9600.00
2018-09-06T06:15:34.960Z,9708.00
2018-09-06T06:16:34.869Z,9900.00
2018-09-06T06:17:34.767Z,10004.00
2018-09-06T06:18:34.676Z,10056.00
2018-09-06T06:19:34.588Z,10004.00
2018-09-06T06:20:34.743Z,9828.00
2018-09-06T06:21:34.395Z,9736.00
2018-09-06T06:22:34.299Z,9680.00
2018-09-06T06:23:34.209Z,9780.00
2018-09-06T06:24:34.106Z,9920.00
2018-09-06T06:25:34.014Z,10088.00
2018-09-06T06:26:33.927Z,10156.00
2018-09-06T06:27:33.833Z,10044.00
2018-09-06T06:28:33.730Z,9808.00
2018-09-06T06:29:33.639Z,9500.00
2018-09-06T06:30:33.547Z,9348.00
2018-09-06T06:31:33.457Z,9244.00
2018-09-06T06:32:33.354Z,9240.00
2018-09-06T06:33:33.262Z,9180.00
2018-09-06T06:34:33.172Z,9008.00
2018-09-06T06:35:33.081Z,8796.00
2018-09-06T06:36:32.991Z,8568.00
2018-09-06T06:37:32.887Z,8348.00
2018-09-06T06:38:32.796Z,8188.00
2018-09-06T06:39:32.706Z,8096.00
2018-09-06T06:40:32.868Z,7992.00
2018-09-06T06:41:32.513Z,7896.00
2018-09-06T06:42:32.422Z,7848.00
2018-09-06T06:43:32.328Z,7816.00
2018-09-06T06:44:32.242Z,7852.00
2018-09-06T06:45:32.147Z,7848.00
2018-09-06T06:46:32.044Z,7852.00
2018-09-06T06:47:31.954Z,7932.00
2018-09-06T06:48:31.862Z,7992.00
2018-09-06T06:49:31.773Z,8040.00
2018-09-06T06:50:31.759Z,8176.00
2018-09-06T06:51:31.577Z,8224.00
2018-09-06T06:52:31.488Z,8244.00
2018-09-06T06:53:31.401Z,8308.00
2018-09-06T06:54:31.311Z,8380.00
2018-09-06T06:55:31.214Z,8416.00
2018-09-06T06:56:31.111Z,8464.00
2018-09-06T06:57:31.021Z,8480.00
2018-09-06T06:58:30.934Z,8560.00
2018-09-06T06:59:30.851Z,8640.00
2018-09-06T07:00:30.747Z,8740.00
2018-09-06T07:01:30.644Z,8804.00
2018-09-06T07:02:30.559Z,8804.00
2018-09-06T07:03:30.462Z,8856.00
2018-09-06T07:04:30.429Z,8896.00
2018-09-06T07:05:30.281Z,9000.00
2018-09-06T07:06:30.179Z,9112.00
2018-09-06T07:07:30.089Z,9112.00
2018-09-06T07:08:29.996Z,9044.00
2018-09-06T07:09:29.905Z,8884.00
2018-09-06T07:10:29.814Z,8360.00
2018-09-06T07:11:29.725Z,7368.00
2018-09-06T07:12:29.621Z,6664.00
2018-09-06T07:13:29.532Z,6408.00
2018-09-06T07:14:29.440Z,6236.00
2018-09-06T07:15:29.348Z,6124.00
2018-09-06T07:16:29.264Z,6104.00
2018-09-06T07:17:29.154Z,6112.00
2018-09-06T07:18:29.222Z,6140.00
2018-09-06T07:19:28.973Z,6188.00
2018-09-06T07:20:29.133Z,6224.00
2018-09-06T07:21:28.793Z,6240.00
2018-09-06T07:22:28.688Z,6244.00
2018-09-06T07:23:28.596Z,6256.00
2018-09-06T07:24:28.506Z,6284.00
2018-09-06T07:25:28.403Z,6356.00
2018-09-06T07:26:28.312Z,6380.00
2018-09-06T07:27:28.224Z,6384.00
2018-09-06T07:28:28.122Z,6400.00
2018-09-06T07:29:28.028Z,6404.00
2018-09-06T07:30:27.997Z,6396.00
2018-09-06T07:31:27.834Z,6444.00
2018-09-06T07:32:27.741Z,6484.00
2018-09-06T07:33:27.653Z,6504.00
2018-09-06T07:34:27.549Z,6520.00
2018-09-06T07:35:27.458Z,6508.00
2018-09-06T07:36:27.367Z,6540.00
2018-09-06T07:37:27.266Z,6568.00
2018-09-06T07:38:27.171Z,6572.00
2018-09-06T07:39:27.082Z,6556.00
2018-09-06T07:40:26.979Z,6544.00
2018-09-06T07:41:26.972Z,6536.00
2018-09-06T07:42:26.785Z,6564.00
2018-09-06T07:43:26.698Z,6584.00
2018-09-06T07:44:26.602Z,6616.00
2018-09-06T07:45:26.499Z,6632.00
2018-09-06T07:46:26.409Z,6616.00
2018-09-06T07:47:26.317Z,6640.00
2018-09-06T07:48:26.214Z,6656.00
2018-09-06T07:49:26.125Z,6668.00
2018-09-06T07:50:26.021Z,6752.00
2018-09-06T07:51:25.929Z,6740.00
2018-09-06T07:52:25.875Z,6748.00
2018-09-06T07:53:25.737Z,6784.00
2018-09-06T07:54:25.644Z,6780.00
2018-09-06T07:55:25.544Z,6776.00
2018-09-06T07:56:25.451Z,6824.00
2018-09-06T07:57:25.359Z,6828.00
2018-09-06T07:58:25.256Z,6816.00
2018-09-06T07:59:25.166Z,6852.00
2018-09-06T08:00:25.067Z,6888.00
2018-09-06T08:01:25.003Z,6956.00
2018-09-06T08:02:24.881Z,7016.00
2018-09-06T08:03:24.779Z,7012.00
2018-09-06T08:04:24.690Z,7004.00
2018-09-06T08:05:24.583Z,7000.00
2018-09-06T08:06:24.493Z,7048.00
2018-09-06T08:07:24.402Z,7076.00
2018-09-06T08:08:24.313Z,7040.00
2018-09-06T08:09:24.209Z,7032.00
2018-09-06T08:10:24.107Z,7068.00
2018-09-06T08:11:24.016Z,7088.00
2018-09-06T08:12:23.923Z,7104.00
2018-09-06T08:13:23.820Z,7088.00
2018-09-06T08:14:23.728Z,7104.00
2018-09-06T08:15:23.626Z,7104.00
2018-09-06T08:16:23.535Z,7088.00
2018-09-06T08:17:23.443Z,7120.00
2018-09-06T08:18:23.344Z,7164.00
2018-09-06T08:19:23.250Z,7068.00
2018-09-06T08:20:23.159Z,6996.00
2018-09-06T08:21:23.058Z,7112.00
2018-09-06T08:22:22.965Z,7196.00
2018-09-06T08:23:22.861Z,7188.00
2018-09-06T08:24:22.869Z,7188.00
2018-09-06T08:25:22.680Z,7188.00
2018-09-06T08:26:22.576Z,7192.00
2018-09-06T08:27:22.486Z,7200.00
2018-09-06T08:28:22.394Z,7236.00
2018-09-06T08:29:22.293Z,7232.00
2018-09-06T08:30:22.200Z,7220.00
2018-09-06T08:31:22.163Z,7232.00
2018-09-06T08:32:22.006Z,7228.00
2018-09-06T08:33:21.916Z,7248.00
2018-09-06T08:34:21.811Z,7232.00
2018-09-06T08:35:21.724Z,7180.00
2018-09-06T08:36:21.630Z,7196.00
2018-09-06T08:37:21.528Z,7136.00
2018-09-06T08:38:21.438Z,7096.00
2018-09-06T08:39:21.345Z,6960.00
2018-09-06T08:40:21.241Z,6892.00
2018-09-06T08:41:21.152Z,6880.00
2018-09-06T08:42:21.060Z,6864.00
2018-09-06T08:43:20.957Z,6812.00
2018-09-06T08:44:20.867Z,6812.00
2018-09-06T08:45:20.825Z,6808.00
2018-09-06T08:46:20.672Z,6832.00
2018-09-06T08:47:20.581Z,6884.00
2018-09-06T08:48:20.479Z,6940.00
2018-09-06T08:49:20.388Z,6888.00
2018-09-06T08:50:20.297Z,6832.00
2018-09-06T08:51:20.193Z,6808.00
2018-09-06T08:52:20.131Z,6900.00
2018-09-06T08:53:20.012Z,6988.00
2018-09-06T08:54:19.909Z,7000.00
2018-09-06T08:55:19.818Z,6988.00
2018-09-06T08:56:19.728Z,6988.00
2018-09-06T08:57:19.628Z,6952.00
2018-09-06T08:58:19.552Z,6944.00
2018-09-06T08:59:19.443Z,6956.00
2018-09-06T09:00:19.340Z,6968.00
2018-09-06T09:01:19.247Z,6888.00
2018-09-06T09:02:19.247Z,6892.00
2018-09-06T09:03:19.091Z,6920.00
2018-09-06T09:04:18.962Z,6992.00
2018-09-06T09:05:18.872Z,7068.00
2018-09-06T09:06:18.770Z,7144.00
2018-09-06T09:07:18.680Z,7208.00
2018-09-06T09:08:18.637Z,7212.00
2018-09-06T09:09:18.496Z,7196.00
2018-09-06T09:10:18.393Z,7212.00
2018-09-06T09:11:18.303Z,7228.00
2018-09-06T09:12:18.252Z,7272.00
2018-09-06T09:13:18.163Z,7280.00
2018-09-06T09:14:18.018Z,7288.00
2018-09-06T09:15:17.916Z,7276.00
2018-09-06T09:16:17.824Z,7320.00
2018-09-06T09:17:17.734Z,7400.00
2018-09-06T09:18:17.703Z,7436.00
2018-09-06T09:19:17.538Z,7560.00
2018-09-06T09:20:17.448Z,7684.00
2018-09-06T09:21:17.357Z,7580.00
2018-09-06T09:22:17.311Z,7564.00
2018-09-06T09:23:17.163Z,7528.00
2018-09-06T09:24:17.071Z,7528.00
2018-09-06T09:25:16.968Z,7548.00
2018-09-06T09:26:16.878Z,7680.00
2018-09-06T09:27:16.787Z,7808.00
2018-09-06T09:28:16.684Z,8100.00
2018-09-06T09:29:16.593Z,9780.00
2018-09-06T09:30:16.501Z,9304.00
2018-09-06T09:31:16.400Z,8016.00
2018-09-06T09:32:16.309Z,10212.00
2018-09-06T09:33:16.218Z,10124.00
2018-09-06T09:34:16.128Z,9488.00
2018-09-06T09:35:16.023Z,10792.00
2018-09-06T09:36:15.932Z,9140.00
2018-09-06T09:37:15.843Z,8036.00
2018-09-06T09:38:15.740Z,8056.00
2018-09-06T09:39:15.648Z,8300.00
2018-09-06T09:40:15.557Z,8380.00
2018-09-06T09:41:15.455Z,8120.00
2018-09-06T09:42:15.362Z,7924.00
2018-09-06T09:43:15.276Z,7984.00
2018-09-06T09:44:15.181Z,7996.00
2018-09-06T09:45:15.078Z,7916.00
2018-09-06T09:48:12.282Z,7944.00
2018-09-06T09:49:12.189Z,7888.00
2018-09-06T09:50:51.185Z,8608.00
2018-09-06T09:51:51.094Z,9324.00
2018-09-06T09:52:50.991Z,9140.00
2018-09-06T09:53:50.899Z,8632.00
2018-09-06T09:54:50.812Z,9368.00
2018-09-06T09:55:50.706Z,9576.00
2018-09-06T09:56:50.619Z,10712.00
2018-09-06T09:57:50.524Z,9952.00
2018-09-06T09:58:50.432Z,8760.00
2018-09-06T09:59:50.332Z,8432.00
2018-09-06T10:00:50.244Z,8384.00
2018-09-06T10:01:50.148Z,8392.00
2018-09-06T10:02:50.046Z,8472.00
2018-09-06T10:04:29.053Z,8348.00
2018-09-06T10:05:28.962Z,8796.00
2018-09-06T10:06:28.893Z,8692.00
2018-09-06T10:07:28.767Z,9000.00
2018-09-06T10:08:28.676Z,9464.00
2018-09-06T10:09:28.575Z,8716.00
2018-09-06T10:10:28.482Z,8008.00
2018-09-06T10:11:28.391Z,8212.00
2018-09-06T10:12:28.301Z,8744.00
2018-09-06T10:13:28.197Z,9240.00
2018-09-06T10:14:28.105Z,9024.00
2018-09-06T10:15:28.016Z,8744.00
2018-09-06T10:16:27.924Z,8924.00
2018-09-06T10:17:27.820Z,8848.00
2018-09-06T10:18:27.732Z,8904.00
2018-09-06T10:19:27.639Z,10256.00
2018-09-06T10:20:27.538Z,12004.00
2018-09-06T10:21:27.446Z,12860.00
2018-09-06T10:22:27.356Z,12988.00
2018-09-06T10:23:27.264Z,11448.00
2018-09-06T10:24:27.160Z,10296.00
2018-09-06T10:25:27.069Z,9364.00
2018-09-06T10:26:26.979Z,8564.00
2018-09-06T10:27:26.890Z,8640.00
2018-09-06T10:28:26.797Z,8652.00
2018-09-06T10:29:26.694Z,8484.00
2018-09-06T10:30:26.602Z,7720.00
2018-09-06T10:31:26.513Z,8896.00
2018-09-06T10:32:26.410Z,10180.00
2018-09-06T10:33:26.318Z,10052.00
2018-09-06T10:34:26.227Z,10220.00
2018-09-06T10:35:26.160Z,9916.00
2018-09-06T10:36:26.032Z,9120.00
2018-09-06T10:37:25.963Z,8364.00
2018-09-06T10:38:25.851Z,8628.00
2018-09-06T10:39:25.842Z,8792.00
2018-09-06T10:40:25.707Z,9684.00
2018-09-06T10:41:25.566Z,11288.00
2018-09-06T10:42:25.476Z,13488.00
2018-09-06T10:43:25.385Z,14724.00
2018-09-06T10:44:25.299Z,13292.00
2018-09-06T10:45:25.191Z,11628.00
2018-09-06T10:46:25.099Z,11464.00
2018-09-06T10:47:25.009Z,12588.00
2018-09-06T10:48:24.906Z,13148.00
2018-09-06T10:49:24.814Z,12920.00
2018-09-06T10:50:24.725Z,12160.00
2018-09-06T10:51:24.633Z,11892.00
2018-09-06T10:52:24.543Z,12024.00
2018-09-06T10:53:24.439Z,12480.00
2018-09-06T10:54:24.349Z,12360.00
2018-09-06T10:55:24.260Z,11412.00
2018-09-06T10:56:24.167Z,10276.00
2018-09-06T10:57:24.065Z,10132.00
2018-09-06T10:58:23.975Z,11132.00
2018-09-06T10:59:23.882Z,11888.00
2018-09-06T11:00:23.792Z,11512.00
2018-09-06T11:01:23.700Z,10980.00
2018-09-06T11:02:23.599Z,10128.00
2018-09-06T11:03:23.508Z,10188.00
2018-09-06T11:04:23.416Z,10484.00
2018-09-06T11:05:23.325Z,10208.00
2018-09-06T11:06:23.233Z,9392.00
2018-09-06T11:07:23.133Z,9144.00
2018-09-06T11:08:23.091Z,9688.00
2018-09-06T11:09:22.951Z,10828.00
2018-09-06T11:10:22.858Z,12928.00
2018-09-06T11:11:22.767Z,12696.00
2018-09-06T11:12:22.681Z,11468.00
2018-09-06T11:13:22.575Z,10948.00
2018-09-06T11:14:22.483Z,9616.00
2018-09-06T11:15:22.392Z,9252.00
2018-09-06T11:16:22.301Z,9920.00
2018-09-06T11:17:22.211Z,11476.00
2018-09-06T11:18:22.111Z,12344.00
2018-09-06T11:19:22.016Z,12052.00
2018-09-06T11:20:21.925Z,12016.00
2018-09-06T11:21:21.938Z,12100.00
2018-09-06T11:22:21.826Z,13112.00
2018-09-06T11:23:21.641Z,14680.00
2018-09-06T11:24:21.562Z,16424.00
2018-09-06T11:25:21.459Z,17100.00
2018-09-06T11:26:21.368Z,16348.00
2018-09-06T11:27:21.295Z,15552.00
2018-09-06T11:28:21.189Z,15308.00
2018-09-06T11:29:21.085Z,15272.00
2018-09-06T11:30:20.992Z,14900.00
2018-09-06T11:31:20.901Z,14388.00
2018-09-06T11:32:20.811Z,14300.00
2018-09-06T11:33:20.796Z,15052.00
2018-09-06T11:34:20.629Z,15972.00
2018-09-06T11:35:20.526Z,17524.00
2018-09-06T11:36:20.434Z,18784.00
2018-09-06T11:37:20.345Z,18496.00
2018-09-06T11:38:20.253Z,16892.00
2018-09-06T11:39:20.166Z,16536.00
2018-09-06T11:40:20.088Z,15692.00
2018-09-06T11:41:19.981Z,16528.00
2018-09-06T11:42:19.890Z,18368.00
2018-09-06T11:43:19.786Z,18752.00
2018-09-06T11:44:19.707Z,18144.00
2018-09-06T11:45:19.604Z,16816.00
2018-09-06T11:46:19.515Z,16104.00
2018-09-06T11:47:19.487Z,14920.00
2018-09-06T11:48:19.344Z,14280.00
2018-09-06T11:49:19.241Z,13392.00
2018-09-06T11:50:19.151Z,12400.00
2018-09-06T11:51:19.060Z,11776.00
2018-09-06T11:52:18.957Z,11836.00
2018-09-06T11:53:18.866Z,11992.00
2018-09-06T11:54:18.778Z,13440.00
2018-09-06T11:55:18.684Z,14996.00
2018-09-06T11:56:18.593Z,16340.00
2018-09-06T11:57:18.506Z,16628.00
2018-09-06T11:58:18.411Z,17600.00
2018-09-06T11:59:18.322Z,17348.00
2018-09-06T12:00:18.231Z,17728.00
2018-09-06T12:01:18.139Z,18176.00
2018-09-06T12:02:18.048Z,16904.00
2018-09-06T12:03:17.946Z,15340.00
2018-09-06T12:04:17.855Z,14708.00
2018-09-06T12:05:17.763Z,15388.00
2018-09-06T12:06:17.855Z,15320.00
2018-09-06T12:07:17.582Z,15148.00
2018-09-06T12:08:17.495Z,15876.00
2018-09-06T12:09:17.400Z,15620.00
2018-09-06T12:10:17.310Z,15576.00
2018-09-06T12:11:17.219Z,15168.00
2018-09-06T12:12:17.128Z,14152.00
2018-09-06T12:13:17.037Z,12532.00
2018-09-06T12:14:16.935Z,11656.00
2018-09-06T12:15:16.843Z,11132.00
2018-09-06T12:16:16.752Z,11260.00
2018-09-06T12:17:16.662Z,12208.00
2018-09-06T12:18:16.570Z,12312.00
2018-09-06T12:19:16.485Z,12808.00
2018-09-06T12:20:16.388Z,13148.00
2018-09-06T12:21:16.299Z,14068.00
2018-09-06T12:22:16.207Z,14876.00
2018-09-06T12:23:16.105Z,15744.00
2018-09-06T12:24:16.017Z,16580.00
2018-09-06T12:25:16.003Z,16920.00
2018-09-06T12:26:15.836Z,17020.00
2018-09-06T12:27:15.741Z,16848.00
2018-09-06T12:28:15.650Z,16600.00